地図

経路データ

SID SEASON NUMBER BASIN SUBBASIN NAME ISO_TIME NATURE LAT LON WMO_WIND WMO_PRES WMO_AGENCY TRACK_TYPE DIST2LAND LANDFALL IFLAG USA_AGENCY USA_ATCF_ID USA_LAT USA_LON USA_RECORD USA_STATUS USA_WIND USA_PRES USA_SSHS USA_R34_NE USA_R34_SE USA_R34_SW USA_R34_NW USA_R50_NE USA_R50_SE USA_R50_SW USA_R50_NW USA_R64_NE USA_R64_SE USA_R64_SW USA_R64_NW USA_POCI USA_ROCI USA_RMW USA_EYE TOKYO_LAT TOKYO_LON TOKYO_GRADE TOKYO_WIND TOKYO_PRES TOKYO_R50_DIR TOKYO_R50_LONG TOKYO_R50_SHORT TOKYO_R30_DIR TOKYO_R30_LONG TOKYO_R30_SHORT TOKYO_LAND CMA_LAT CMA_LON CMA_CAT CMA_WIND CMA_PRES HKO_LAT HKO_LON HKO_CAT HKO_WIND HKO_PRES NEWDELHI_LAT NEWDELHI_LON NEWDELHI_GRADE NEWDELHI_WIND NEWDELHI_PRES NEWDELHI_CI NEWDELHI_DP NEWDELHI_POCI REUNION_LAT REUNION_LON REUNION_TYPE REUNION_WIND REUNION_PRES REUNION_TNUM REUNION_CI REUNION_RMW REUNION_R34_NE REUNION_R34_SE REUNION_R34_SW REUNION_R34_NW REUNION_R50_NE REUNION_R50_SE REUNION_R50_SW REUNION_R50_NW REUNION_R64_NE REUNION_R64_SE REUNION_R64_SW REUNION_R64_NW BOM_LAT BOM_LON BOM_TYPE BOM_WIND BOM_PRES BOM_TNUM BOM_CI BOM_RMW BOM_R34_NE BOM_R34_SE BOM_R34_SW BOM_R34_NW BOM_R50_NE BOM_R50_SE BOM_R50_SW BOM_R50_NW BOM_R64_NE BOM_R64_SE BOM_R64_SW BOM_R64_NW BOM_ROCI BOM_POCI BOM_EYE BOM_POS_METHOD BOM_PRES_METHOD NADI_LAT NADI_LON NADI_CAT NADI_WIND NADI_PRES WELLINGTON_LAT WELLINGTON_LON WELLINGTON_WIND WELLINGTON_PRES DS824_LAT DS824_LON DS824_STAGE DS824_WIND DS824_PRES TD9636_LAT TD9636_LON TD9636_STAGE TD9636_WIND TD9636_PRES TD9635_LAT TD9635_LON TD9635_WIND TD9635_PRES TD9635_ROCI NEUMANN_LAT NEUMANN_LON NEUMANN_CLASS NEUMANN_WIND NEUMANN_PRES MLC_LAT MLC_LON MLC_CLASS MLC_WIND MLC_PRES USA_GUST BOM_GUST BOM_GUST_PER REUNION_GUST REUNION_GUST_PER USA_SEAHGT USA_SEARAD_NE USA_SEARAD_SE USA_SEARAD_SW USA_SEARAD_NW STORM_SPEED STORM_DIR
1979082S10054 1979 23 SI MM HELIOS 1979-03-23 06:00:00 TS -10.1000 54.0000 main 552 539 O________OO___ jtwc_sh SH211979 -10.1000 54.0000 -1 -10.1000 54.0000 TC 25 -10.1000 54.0000 1 4 0
1979082S10054 1979 23 SI MM HELIOS 1979-03-23 09:00:00 TS -10.2940 54.0010 main 539 527 P________PP___ SH211979 -10.3050 54.0000 -1 -10.3050 54.0000 TC 25 -10.2719 54.0031 1 4 177
1979082S10054 1979 23 SI MM HELIOS 1979-03-23 12:00:00 TS -10.4850 54.0017 main 527 515 O________OP___ jtwc_sh SH211979 -10.5000 54.0000 -1 -10.5000 54.0000 TC 25 -10.4550 54.0050 1 4 177
1979082S10054 1979 23 SI MM HELIOS 1979-03-23 15:00:00 TS -10.6769 54.0014 main 515 504 P________PP___ SH211979 -10.6850 54.0000 -1 -10.6850 54.0000 TC 25 -10.6606 54.0043 1 4 0
1979082S10054 1979 23 SI MM HELIOS 1979-03-23 18:00:00 TS -10.9000 54.0000 main 504 489 O________OO___ jtwc_sh SH211979 -10.9000 54.0000 -1 -10.9000 54.0000 TC 25 -10.9000 54.0000 1 5 183
1979082S10054 1979 23 SI MM HELIOS 1979-03-23 21:00:00 TS -11.1876 53.9973 main 489 476 P________PP___ SH211979 -11.1925 54.0000 -1 -11.1925 54.0000 TC 25 -11.1778 53.9919 1 6 0
1979082S10054 1979 23 SI MM HELIOS 1979-03-24 00:00:00 TS -11.4908 53.9950 main 476 465 O________OP___ jtwc_sh SH211979 -11.5000 54.0000 -1 -11.5000 54.0000 TC 25 -11.4725 53.9851 1 6 0
1979082S10054 1979 23 SI MM HELIOS 1979-03-24 03:00:00 TS -11.7720 53.9902 main 465 459 P________PP___ SH211979 -11.7800 53.9925 -1 -11.7800 53.9925 TC 25 -11.7559 53.9857 1 5 177
1979082S10054 1979 23 SI MM HELIOS 1979-03-24 06:00:00 TS -12.0000 54.0000 main 459 456 O________OO___ jtwc_sh SH211979 -12.0000 54.0000 -1 -12.0000 54.0000 TC 25 -12.0000 54.0000 1 4 171
1979082S10054 1979 23 SI MM HELIOS 1979-03-24 09:00:00 TS -12.1327 54.0402 main 456 454 P________PP___ SH211979 -12.1150 54.0425 -1 -12.1150 54.0425 TC 25 -12.1681 54.0356 1 3 158
1979082S10054 1979 23 SI MM HELIOS 1979-03-24 12:00:00 TS -12.2317 54.0950 main 464 458 O________OP___ jtwc_sh SH211979 -12.2000 54.1000 -1 -12.2000 54.1000 TC 25 -12.2950 54.0850 1 3 156
1979082S10054 1979 23 SI MM HELIOS 1979-03-24 15:00:00 TS -12.3665 54.1473 main 458 458 P________PP___ SH211979 -12.3500 54.1500 -1 -12.3500 54.1500 TC 25 -12.3994 54.1419 1 3 159
1979082S10054 1979 23 SI MM HELIOS 1979-03-24 18:00:00 TS -12.5000 54.2000 main 466 463 O________OO___ jtwc_sh SH211979 -12.5000 54.2000 -1 -12.5000 54.2000 TC 25 -12.5000 54.2000 1 3 158
1979082S10054 1979 23 SI MM HELIOS 1979-03-24 21:00:00 TS -12.6015 54.2433 main 463 463 P________PP___ SH211979 -12.6000 54.2500 -1 -12.6000 54.2500 TC 25 -12.6046 54.2299 1 2 156
1979082S10054 1979 23 SI MM HELIOS 1979-03-25 00:00:00 TS -12.7041 54.2876 main 471 468 O________OP___ jtwc_sh SH211979 -12.7000 54.3000 -1 -12.7000 54.3000 TC 25 -12.7124 54.2628 1 2 160
1979082S10054 1979 23 SI MM HELIOS 1979-03-25 03:00:00 TS -12.8313 54.3281 main 468 465 P________PP___ SH211979 -12.8275 54.3351 -1 -12.8275 54.3351 TC 25 -12.8390 54.3143 1 3 159
1979082S10054 1979 23 SI MM HELIOS 1979-03-25 06:00:00 TS -13.0000 54.4000 main 473 471 O________OO___ jtwc_sh SH211979 -13.0000 54.4000 -1 -13.0000 54.4000 TC 25 -13.0000 54.4000 1 4 154
1979082S10054 1979 23 SI MM HELIOS 1979-03-25 09:00:00 TS -13.2307 54.5259 main 480 479 P________PP___ SH211979 -13.2350 54.5275 -1 -13.2350 54.5275 TC 25 -13.2221 54.5228 1 6 150
1979082S10054 1979 23 SI MM HELIOS 1979-03-25 12:00:00 TS -13.4925 54.6942 main 491 486 O________OP___ jtwc_sh SH211979 -13.5000 54.7000 -1 -13.5000 54.7000 TC 25 -13.4774 54.6825 1 6 147
1979082S10054 1979 23 SI MM HELIOS 1979-03-25 15:00:00 TS -13.7530 54.8770 main 499 499 P________PP___ SH211979 -13.7575 54.8775 -1 -13.7575 54.8775 TC 25 -13.7440 54.8759 1 6 142
1979082S10054 1979 23 SI MM HELIOS 1979-03-25 18:00:00 TS -14.0000 55.1000 main 513 513 O________OO___ jtwc_sh SH211979 -14.0000 55.1000 -1 -14.0000 55.1000 TC 25 -14.0000 55.1000 1 7 133
1979082S10054 1979 23 SI MM HELIOS 1979-03-25 21:00:00 TS -14.2112 55.3811 main 539 536 P________PP___ SH211979 -14.2075 55.3925 -1 -14.2075 55.3925 TC 25 -14.2186 55.3584 1 7 126
1979082S10054 1979 23 SI MM HELIOS 1979-03-26 00:00:00 TS -14.4076 55.6808 main 566 564 O________OP___ jtwc_sh SH211979 -14.4000 55.7000 -1 -14.4000 55.7000 TC 25 -14.4227 55.6424 1 7 126
1979082S10054 1979 23 SI MM HELIOS 1979-03-26 03:00:00 TS -14.6101 55.9534 main 595 593 P________PP___ SH211979 -14.6075 55.9650 -1 -14.6075 55.9650 TC 30 -14.6154 55.9303 1 6 128
1979082S10054 1979 23 SI MM HELIOS 1979-03-26 06:00:00 TS -14.8000 56.2000 main 608 582 O________OO___ jtwc_sh SH211979 -14.8000 56.2000 -1 -14.8000 56.2000 TC 35 -14.8000 56.2000 2 6 128
1979082S10054 1979 23 SI MM HELIOS 1979-03-26 09:00:00 TS -14.9606 56.4110 main 582 582 P________PP___ SH211979 -14.9500 56.4076 -1 -14.9500 56.4076 TC 35 -14.9820 56.4177 2 2 134
1979082S10054 1979 23 SI MM HELIOS 1979-03-26 12:00:00 TS -14.9592 56.3758 20 1003 reunion main 582 565 O____O___OP_O_ jtwc_sh SH211979 -15.1000 56.6000 -1 -14.0000 55.0000 2 20 1003 1.50000 1.50000 -15.1000 56.6000 TC 35 -15.1573 56.6153 2 -14.0000 55.0000 TC 25 1003 3 117
1979082S10054 1979 23 SI MM HELIOS 1979-03-26 15:00:00 TS -15.1142 56.7176 main 565 538 P____P___PP_P_ SH211979 -15.3000 56.8000 -1 -14.5280 56.4653 2 24 1000 -15.3000 56.8000 TC 35 -15.3289 56.8052 2 -14.5280 56.4653 TC 30 1000 9 116
1979082S10054 1979 23 SI MM HELIOS 1979-03-26 18:00:00 TS -15.3333 57.1667 28 997 reunion main 538 514 O____O___OO_O_ jtwc_sh SH211979 -15.5000 57.0000 -1 -15.0000 57.5000 2 28 997 2.50000 2.50000 -15.5000 57.0000 TC 35 -15.5000 57.0000 2 -15.0000 57.5000 TC 35 997 8 122
1979082S10054 1979 23 SI MM HELIOS 1979-03-26 21:00:00 TS -15.5479 57.4429 main 514 481 P____P___PP_P_ SH211979 -15.6500 57.1926 -1 -15.3988 57.8235 2 -15.6500 57.1926 TC 30 -15.6421 57.1820 2 -15.3988 57.8235 TC 37 6 141
1979082S10054 1979 23 SI MM HELIOS 1979-03-27 00:00:00 TS -15.7979 57.5553 reunion main 481 447 O____O___OP_O_ jtwc_sh SH211979 -15.8000 57.4000 -1 -15.8000 57.8000 99 9.90000 -15.8000 57.4000 TC 25 -15.7894 57.3763 2 -15.8000 57.8000 TC 40 6 153
1979082S10054 1979 23 SI MM HELIOS 1979-03-27 03:00:00 TS -16.1043 57.7296 main 447 414 P____P___PP_P_ SH211979 -15.9699 57.6127 -1 -16.3075 57.9075 99 -15.9699 57.6127 TC 25 -15.9670 57.6073 2 -16.3075 57.9075 TC 37 7 150
1979082S10054 1979 23 SI MM HELIOS 1979-03-27 06:00:00 TS -16.4400 57.9400 reunion main 414 372 O____O___OO_O_ jtwc_sh SH211979 -16.2000 57.9000 -1 -16.8000 58.0000 99 9.90000 -16.2000 57.9000 TC 25 -16.2000 57.9000 1 -16.8000 58.0000 TC 35 8 145
1979082S10054 1979 23 SI MM HELIOS 1979-03-27 09:00:00 TS -16.7836 58.2224 main 372 346 P____P___PP_P_ SH211979 -16.5201 58.3200 -1 -17.1799 58.0777 99 -16.5201 58.3200 TC 25 -16.5182 58.3169 1 -17.1799 58.0777 TC 30 9 140
1979082S10054 1979 23 SI MM HELIOS 1979-03-27 12:00:00 TS -17.1382 58.5582 20 1003 reunion main 348 317 O____O___OP_O_ jtwc_sh SH211979 -16.9000 58.8000 -1 -17.5000 58.2000 2 20 1003 1.50000 1.50000 -16.9000 58.8000 TC 25 -16.8911 58.7912 1 -17.5000 58.2000 TC 25 1003 10 136
1979082S10054 1979 23 SI MM HELIOS 1979-03-27 15:00:00 TS -17.4957 58.9430 main 317 301 P____P___PP_P_ SH211979 -17.3001 59.2799 -1 -17.7926 58.4425 2 -17.3001 59.2799 TC 25 -17.2932 59.2701 1 -17.7926 58.4425 TC 27 10 136
1979082S10054 1979 23 SI MM HELIOS 1979-03-27 18:00:00 TS -17.8600 59.3000 reunion main 298 284 O____O___OO_O_ jtwc_sh SH211979 -17.7000 59.7000 -1 -18.1000 58.7000 99 9.90000 -17.7000 59.7000 TC 25 -17.7000 59.7000 1 -18.1000 58.7000 TC 30 9 143
1979082S10054 1979 23 SI MM HELIOS 1979-03-27 21:00:00 TS -18.2320 59.5295 main 284 268 P____P___PP_P_ SH211979 -18.0498 59.9803 -1 -18.4848 58.8353 99 -18.0498 59.9803 TC 25 -18.0907 60.0162 1 -18.4848 58.8353 TC 27 9 149
1979082S10054 1979 23 SI MM HELIOS 1979-03-28 00:00:00 TS -18.6009 59.7738 reunion main 276 270 O____O___OP_O_ jtwc_sh SH211979 -18.4000 60.2000 -1 -18.9000 59.0000 99 9.90000 -18.4000 60.2000 TC 25 -18.4793 60.2757 1 -18.9000 59.0000 TC 25 9 145
1979082S10054 1979 23 SI MM HELIOS 1979-03-28 03:00:00 TS -18.9908 60.0821 main 279 275 P____P___PP_P_ SH211979 -18.8075 60.4575 -1 -19.3375 59.3048 99 -18.8075 60.4575 TC 25 -18.8533 60.4973 1 -19.3053 59.3044 TC 22 10 139
1979082S10054 1979 23 SI MM HELIOS 1979-03-28 06:00:00 TS -19.3250 60.4500 reunion main 303 299 O____O___OO_O_ jtwc_sh SH211979 -19.2000 60.7000 -1 -19.7000 59.7000 99 9.90000 -19.2000 60.7000 TC 25 -19.2000 60.7000 1 -19.7000 59.7000 TC 20 9 130
1979082S10054 1979 23 SI MM HELIOS 1979-03-28 09:00:00 TS -19.5641 60.8047 main 323 323 P____P___PP___ SH211979 -19.5224 60.9076 -1 -19.9002 60.1401 99 -19.5224 60.9076 TC 25 -19.4793 60.9311 1 TC 8 129
1979082S10054 1979 23 SI MM HELIOS 1979-03-28 12:00:00 TS -19.7954 61.0756 reunion main 349 347 O____O___OP___ jtwc_sh SH211979 -19.8000 61.1000 -1 -20.0000 60.6000 6 9.90000 -19.8000 61.1000 TC 25 -19.7350 61.1456 1 7 133
1979082S10054 1979 23 SI MM HELIOS 1979-03-28 15:00:00 TS -20.0177 61.3175 main 366 366 P________PP___ SH211979 -20.0275 61.3076 -1 6 -20.0275 61.3076 TC 25 -19.9981 61.3372 1 6 142
1979082S10054 1979 23 SI MM HELIOS 1979-03-28 18:00:00 TS -20.3000 61.5000 main 385 385 O________OO___ jtwc_sh SH211979 -20.3000 61.5000 -1 -20.3000 61.5000 TC 25 -20.3000 61.5000 1 8 155
1979082S10054 1979 23 SI MM HELIOS 1979-03-28 21:00:00 TS -20.7285 61.6619 main 408 408 P________PP___ SH211979 -20.7275 61.6724 -1 -20.7275 61.6724 TC 25 -20.7305 61.6409 1 9 164
1979082S10054 1979 23 SI MM HELIOS 1979-03-29 00:00:00 TS -21.1983 61.7841 main 427 427 O________OP___ jtwc_sh SH211979 -21.2000 61.8000 -1 -21.2000 61.8000 TC 25 -21.1949 61.7524 1 9 169
1979082S10054 1979 23 SI MM HELIOS 1979-03-29 03:00:00 TS -21.6473 61.8560 main 449 449 P________PP___ SH211979 -21.6525 61.8651 -1 -21.6525 61.8651 TC 25 -21.6368 61.8377 1 8 172
1979082S10054 1979 23 SI MM HELIOS 1979-03-29 06:00:00 TS -22.0000 61.9000 main 465 465 O________OO___ jtwc_sh SH211979 -22.0000 61.9000 -1 -22.0000 61.9000 TC 25 -22.0000 61.9000 1 5 171
1979082S10054 1979 23 SI MM HELIOS 1979-03-29 09:00:00 TS -22.1621 61.9554 main 484 484 P________PP___ SH211979 -22.1375 61.9575 -1 -22.1375 61.9575 TC 25 -22.2112 61.9510 1 3 160
1979082S10054 1979 23 SI MM HELIOS 1979-03-29 12:00:00 TS -22.2466 61.9935 main 484 484 O________OP___ jtwc_sh SH211979 -22.2000 62.0000 -1 -22.2000 62.0000 TC 25 -22.3399 61.9804 1 2 169
1979082S10054 1979 23 SI MM HELIOS 1979-03-29 15:00:00 TS -22.3746 62.0032 main 492 492 P________PP___ SH211979 -22.3500 62.0075 -1 -22.3500 62.0075 TC 25 -22.4237 61.9946 1 3 0
1979082S10054 1979 23 SI MM HELIOS 1979-03-29 18:00:00 TS -22.5000 62.0000 main 497 497 O________OO___ jtwc_sh SH211979 -22.5000 62.0000 -1 -22.5000 62.0000 TC 25 -22.5000 62.0000 1 2 183
1979082S10054 1979 23 SI MM HELIOS 1979-03-29 21:00:00 TS -22.6016 62.0024 main 502 502 P________PP___ SH211979 -22.6000 62.0000 -1 -22.6000 62.0000 TC 25 -22.6047 62.0072 1 2 173
1979082S10054 1979 23 SI MM HELIOS 1979-03-30 00:00:00 TS -22.7042 62.0025 main 507 507 O________OP___ jtwc_sh SH211979 -22.7000 62.0000 -1 -22.7000 62.0000 TC 25 -22.7125 62.0075 1 2 185
1979082S10054 1979 23 SI MM HELIOS 1979-03-30 03:00:00 TS -22.8314 62.0014 main 513 513 P________PP___ SH211979 -22.8275 62.0000 -1 -22.8275 62.0000 TC 25 -22.8391 62.0041 1 3 182
1979082S10054 1979 23 SI MM HELIOS 1979-03-30 06:00:00 TS -23.0000 62.0000 main 524 524 O________OO___ jtwc_sh SH211979 -23.0000 62.0000 -1 -23.0000 62.0000 TC 25 -23.0000 62.0000 1 4 184
1979082S10054 1979 23 SI MM HELIOS 1979-03-30 09:00:00 TS -23.2280 62.0000 main 536 536 P________PP___ SH211979 -23.2350 62.0000 -1 -23.2350 62.0000 TC 25 -23.2141 62.0000 1 5 178
1979082S10054 1979 23 SI MM HELIOS 1979-03-30 12:00:00 TS -23.4875 62.0000 main 555 555 O________OP___ jtwc_sh SH211979 -23.5000 62.0000 -1 -23.5000 62.0000 TC 25 -23.4625 62.0000 1 5 177
1979082S10054 1979 23 SI MM HELIOS 1979-03-30 15:00:00 TS -23.7432 62.0000 main 569 569 P________PP___ SH211979 -23.7500 62.0000 -1 -23.7500 62.0000 TC 25 -23.7297 62.0000 1 5 178
1979082S10054 1979 23 SI MM HELIOS 1979-03-30 18:00:00 TS -24.0000 62.0000 main 590 590 O________OO___ jtwc_sh SH211979 -24.0000 62.0000 -1 -24.0000 62.0000 TC 25 -24.0000 62.0000 1 5 0
1979082S10054 1979 23 SI MM HELIOS 1979-03-30 21:00:00 TS -24.2536 62.0000 main 612 612 P________PP___ SH211979 -24.2500 62.0000 -1 -24.2500 62.0000 TC 25 -24.2609 62.0000 1 5 0
1979082S10054 1979 23 SI MM HELIOS 1979-03-31 00:00:00 TS -24.5042 62.0000 main 628 628 O________OP___ jtwc_sh SH211979 -24.5000 62.0000 -1 -24.5000 62.0000 TC 25 -24.5125 62.0000 1 5 0
1979082S10054 1979 23 SI MM HELIOS 1979-03-31 03:00:00 TS -24.7526 62.0000 main 652 652 P________PP___ SH211979 -24.7500 62.0000 -1 -24.7500 62.0000 TC 25 -24.7578 62.0000 1 5 0
1979082S10054 1979 23 SI MM HELIOS 1979-03-31 06:00:00 TS -25.0000 62.0000 main 668 O________OO___ jtwc_sh SH211979 -25.0000 62.0000 -1 -25.0000 62.0000 TC 25 -25.0000 62.0000 1 5 0

IBTrACS Databaseについて

本データベースは、米国NOAAが公開する1842年以降の世界の熱帯低気圧のベストトラックデータアーカイブInternational Best Track Archive for Climate Stewardship (IBTrACS)を、ウェブで閲覧しやすい形式に変換したものです。

最終更新日:2021-10-08